createdAt,value
2022-10-12T00:00:40.299Z,7.37
2022-10-12T00:05:41.147Z,9.48
2022-10-12T00:10:43.513Z,7.43
2022-10-12T00:15:44.434Z,9.10
2022-10-12T00:20:45.588Z,13.27
2022-10-12T00:25:46.324Z,13.80
2022-10-12T00:30:47.086Z,5.87
2022-10-12T00:35:47.857Z,12.73
2022-10-12T00:40:49.104Z,4.45
2022-10-12T00:45:50.056Z,7.10
2022-10-12T00:50:51.551Z,8.07
2022-10-12T00:55:58.125Z,11.40
2022-10-12T01:01:04.357Z,8.88
2022-10-12T01:06:06.901Z,13.50
2022-10-12T01:11:07.616Z,6.10
2022-10-12T01:23:15.848Z,8.27
2022-10-12T01:28:35.579Z,7.75
2022-10-12T01:33:44.971Z,8.63
2022-10-12T01:41:02.801Z,6.68
2022-10-12T01:47:55.904Z,10.68
2022-10-12T01:53:27.373Z,9.40
2022-10-12T02:00:06.463Z,8.45
2022-10-12T02:06:50.287Z,10.68
2022-10-12T02:11:56.362Z,10.03
2022-10-12T02:17:04.805Z,10.25
2022-10-12T02:22:08.838Z,13.93
2022-10-12T02:27:13.646Z,10.38
2022-10-12T02:32:34.904Z,7.60
2022-10-12T02:37:44.660Z,9.80
2022-10-12T02:43:11.080Z,9.80
2022-10-12T02:48:17.322Z,10.63
2022-10-12T02:53:19.896Z,14.77
2022-10-12T02:58:20.690Z,9.47
2022-10-12T03:03:21.701Z,5.18
2022-10-12T03:08:22.493Z,6.82
2022-10-12T03:13:23.250Z,8.25
2022-10-12T03:18:23.993Z,12.20
2022-10-12T03:23:25.101Z,9.75
2022-10-12T03:28:25.985Z,7.05
2022-10-12T03:33:27.000Z,10.70
2022-10-12T03:38:28.027Z,14.93
2022-10-12T03:43:28.849Z,7.45
2022-10-12T03:48:29.581Z,7.55
2022-10-12T03:53:30.824Z,8.10
2022-10-12T03:58:31.567Z,12.95
2022-10-12T04:03:32.410Z,6.20
2022-10-12T04:08:33.443Z,8.80
2022-10-12T04:13:34.644Z,6.40
2022-10-12T04:18:35.554Z,15.25
2022-10-12T04:23:36.385Z,5.95
2022-10-12T04:28:37.277Z,8.25
2022-10-12T04:33:38.517Z,8.32
2022-10-12T04:38:39.255Z,11.12
2022-10-12T04:43:40.223Z,9.68
2022-10-12T04:48:40.949Z,7.32
2022-10-12T04:53:41.989Z,8.00
2022-10-12T04:58:43.399Z,8.30
2022-10-12T05:03:44.266Z,11.35
2022-10-12T05:08:45.019Z,8.50
2022-10-12T05:13:45.809Z,9.85
2022-10-12T05:18:47.000Z,9.23
2022-10-12T05:23:51.669Z,6.22
2022-10-12T05:28:52.466Z,8.65
2022-10-12T05:33:53.716Z,11.00
2022-10-12T05:38:54.615Z,7.87
2022-10-12T05:43:55.554Z,8.07
2022-10-12T05:48:56.276Z,10.38
2022-10-12T05:53:57.029Z,16.27
2022-10-12T05:58:57.763Z,9.35
2022-10-12T06:03:58.672Z,9.82
2022-10-12T06:08:59.541Z,15.70
2022-10-12T06:14:00.317Z,10.38
2022-10-12T06:19:01.034Z,9.70
2022-10-12T06:24:01.811Z,11.07
2022-10-12T06:29:02.953Z,7.28
2022-10-12T06:34:04.080Z,6.90
2022-10-12T06:39:04.916Z,16.33
2022-10-12T06:44:06.384Z,7.50
2022-10-12T06:49:09.525Z,12.07
2022-10-12T06:54:10.418Z,9.38
2022-10-12T06:59:12.572Z,18.20
2022-10-12T07:04:13.392Z,9.20
2022-10-12T07:09:16.198Z,12.35
2022-10-12T07:14:17.134Z,18.85
2022-10-12T07:19:17.908Z,13.98
2022-10-12T07:24:18.648Z,20.40
2022-10-12T07:29:19.398Z,22.48
2022-10-12T07:34:20.204Z,15.43
2022-10-12T07:39:22.143Z,16.92
2022-10-12T07:44:23.690Z,14.95
2022-10-12T07:49:24.731Z,13.35
2022-10-12T07:54:29.153Z,23.33
2022-10-12T07:59:30.744Z,72.55
2022-10-12T08:04:31.574Z,21.80
2022-10-12T08:09:35.138Z,20.85
2022-10-12T08:14:36.484Z,11.68
2022-10-12T08:19:37.239Z,11.63
2022-10-12T08:24:38.053Z,15.18
2022-10-12T08:29:38.868Z,17.75
2022-10-12T08:34:39.821Z,8.75
2022-10-12T08:39:40.602Z,13.75
2022-10-12T08:46:34.012Z,12.55
2022-10-12T08:51:45.397Z,8.88
2022-10-12T08:56:46.290Z,10.93
2022-10-12T09:05:04.202Z,10.95
2022-10-12T09:10:37.678Z,9.80
2022-10-12T09:15:50.725Z,13.80
2022-10-12T09:20:52.584Z,11.02
2022-10-12T09:26:14.806Z,12.15
2022-10-12T09:31:42.922Z,11.07
2022-10-12T09:36:43.672Z,8.88
2022-10-12T09:41:47.232Z,14.65
2022-10-12T09:46:54.577Z,14.13
2022-10-12T09:51:59.929Z,13.38
2022-10-12T09:57:02.639Z,17.75
2022-10-12T10:02:16.717Z,14.85
2022-10-12T10:07:30.473Z,11.12
2022-10-12T10:12:31.803Z,11.80
2022-10-12T10:17:33.699Z,12.15
2022-10-12T10:22:34.456Z,20.23
2022-10-12T10:27:38.149Z,13.30
2022-10-12T10:32:38.903Z,10.70
2022-10-12T10:38:06.701Z,14.82
2022-10-12T10:43:24.662Z,8.90
2022-10-12T10:48:50.450Z,15.18
2022-10-12T10:53:51.302Z,13.13
2022-10-12T10:58:55.809Z,13.62
2022-10-12T11:07:01.107Z,8.27
2022-10-12T11:12:06.721Z,9.60
2022-10-12T11:17:16.472Z,12.35
2022-10-12T11:22:31.961Z,12.07
2022-10-12T11:27:41.104Z,14.95
2022-10-12T11:32:46.577Z,11.43
2022-10-12T11:37:53.373Z,12.93
2022-10-12T11:42:57.439Z,11.20
2022-10-12T11:48:09.643Z,16.12
2022-10-12T11:53:38.169Z,15.95
2022-10-12T11:58:59.836Z,12.60
2022-10-12T12:05:54.131Z,12.02
2022-10-12T12:11:18.670Z,16.08
2022-10-12T12:16:30.179Z,14.18
2022-10-12T12:22:25.797Z,14.73
2022-10-12T12:27:34.346Z,13.88
2022-10-12T12:32:46.357Z,16.20
2022-10-12T12:37:48.536Z,16.55
2022-10-12T12:42:49.679Z,10.43
2022-10-12T12:47:50.433Z,15.90
2022-10-12T12:53:05.956Z,11.57
2022-10-12T12:59:50.030Z,16.27
2022-10-12T13:05:29.141Z,19.73
2022-10-12T13:15:56.800Z,17.25
2022-10-12T13:20:58.602Z,17.65
2022-10-12T13:26:07.675Z,15.10
2022-10-12T13:31:57.950Z,18.30
2022-10-12T13:37:04.504Z,16.42
2022-10-12T13:42:05.937Z,18.33
2022-10-12T13:47:31.547Z,13.50
2022-10-12T13:52:33.565Z,11.65
2022-10-12T13:57:40.533Z,12.40
2022-10-12T14:02:52.431Z,15.88
2022-10-12T14:07:57.713Z,11.60
2022-10-12T14:13:01.116Z,16.27
2022-10-12T14:18:02.970Z,24.73
2022-10-12T14:23:15.192Z,15.13
2022-10-12T14:28:35.995Z,12.57
2022-10-12T14:33:36.792Z,15.25
2022-10-12T14:38:46.373Z,19.02
2022-10-12T14:44:06.153Z,12.40
2022-10-12T14:49:17.935Z,16.55
2022-10-12T14:54:19.166Z,15.75
2022-10-12T14:59:20.150Z,18.27
2022-10-12T15:04:20.896Z,24.58
2022-10-12T15:09:21.930Z,18.85
2022-10-12T15:14:22.702Z,16.95
2022-10-12T15:19:23.541Z,13.60
2022-10-12T15:24:24.316Z,12.63
2022-10-12T15:29:25.173Z,16.15
2022-10-12T15:34:26.641Z,17.55
2022-10-12T15:39:27.400Z,12.20
2022-10-12T15:44:28.256Z,13.82
2022-10-12T15:49:29.014Z,16.83
2022-10-12T15:54:29.754Z,14.05
2022-10-12T15:59:30.584Z,11.60
2022-10-12T16:04:31.324Z,11.27
2022-10-12T16:09:32.342Z,11.07
2022-10-12T16:14:33.093Z,14.40
2022-10-12T16:19:33.988Z,22.55
2022-10-12T16:24:35.036Z,13.90
2022-10-12T16:29:36.629Z,11.50
2022-10-12T16:34:37.589Z,16.37
2022-10-12T16:39:38.358Z,14.93
2022-10-12T16:44:39.170Z,12.43
2022-10-12T16:49:39.996Z,15.38
2022-10-12T16:54:41.146Z,14.90
2022-10-12T16:59:42.025Z,17.80
2022-10-12T17:04:43.462Z,22.48
2022-10-12T17:09:45.202Z,22.62
2022-10-12T17:14:46.098Z,16.55
2022-10-12T17:19:47.259Z,21.12
2022-10-12T17:24:48.419Z,28.80
2022-10-12T17:29:49.290Z,12.63
2022-10-12T17:34:50.078Z,16.65
2022-10-12T17:39:50.942Z,18.48
2022-10-12T17:44:52.429Z,14.65
2022-10-12T17:49:53.185Z,13.43
2022-10-12T17:54:53.920Z,23.23
2022-10-12T17:59:54.814Z,27.15
2022-10-12T18:04:55.555Z,28.40
2022-10-12T18:14:57.745Z,15.35
2022-10-12T18:19:58.569Z,22.90
2022-10-12T18:24:59.320Z,24.67
2022-10-12T18:30:00.182Z,36.50
2022-10-12T18:35:01.751Z,29.95
2022-10-12T18:40:03.135Z,40.55
2022-10-12T18:45:05.091Z,24.50
2022-10-12T18:50:07.228Z,23.75
2022-10-12T18:55:09.736Z,23.10
2022-10-12T19:00:11.256Z,19.25
2022-10-12T19:05:12.029Z,21.55
2022-10-12T19:10:12.957Z,18.60
2022-10-12T19:15:13.809Z,25.37
2022-10-12T19:20:14.555Z,28.10
2022-10-12T19:25:15.471Z,17.20
2022-10-12T19:30:16.424Z,18.95
2022-10-12T19:35:17.210Z,17.67
2022-10-12T19:40:17.973Z,24.83
2022-10-12T19:45:18.743Z,21.48
2022-10-12T19:50:19.489Z,21.65
2022-10-12T19:55:20.255Z,17.65
2022-10-12T20:00:21.171Z,18.83
2022-10-12T20:05:21.944Z,22.42
2022-10-12T20:10:22.711Z,33.13
2022-10-12T20:15:23.505Z,29.52
2022-10-12T20:20:24.257Z,20.40
2022-10-12T20:25:25.067Z,23.92
2022-10-12T20:30:25.886Z,22.20
2022-10-12T20:35:27.734Z,19.42
2022-10-12T20:40:28.824Z,25.45
2022-10-12T20:45:29.579Z,33.72
2022-10-12T20:50:30.446Z,31.37
2022-10-12T20:55:31.226Z,24.02
2022-10-12T21:00:32.147Z,23.30
2022-10-12T21:05:36.274Z,19.70
2022-10-12T21:10:40.156Z,19.67
2022-10-12T21:15:49.250Z,22.08
2022-10-12T21:20:58.351Z,21.73
2022-10-12T21:26:08.224Z,20.75
2022-10-12T21:31:10.250Z,16.40
2022-10-12T21:36:20.179Z,27.55
2022-10-12T21:41:23.148Z,34.58
2022-10-12T21:46:29.714Z,28.23
2022-10-12T21:51:31.500Z,28.77
2022-10-12T21:56:34.557Z,28.02
2022-10-12T22:01:38.477Z,34.78
2022-10-12T22:06:39.983Z,21.98
2022-10-12T22:11:41.567Z,21.62
2022-10-12T22:16:45.282Z,19.20
2022-10-12T22:21:51.322Z,17.10
2022-10-12T22:26:53.305Z,27.50
2022-10-12T22:31:54.469Z,30.40
2022-10-12T22:36:55.283Z,29.80
2022-10-12T22:41:58.055Z,22.17
2022-10-12T22:46:58.817Z,19.40
2022-10-12T22:51:59.617Z,21.05
2022-10-12T22:57:00.363Z,23.67
2022-10-12T23:02:02.815Z,33.43
2022-10-12T23:07:03.789Z,23.90
2022-10-12T23:12:04.813Z,21.05
2022-10-12T23:17:05.547Z,20.88
2022-10-12T23:22:06.743Z,18.58
2022-10-12T23:27:07.466Z,23.67
2022-10-12T23:32:08.482Z,20.45
2022-10-12T23:37:09.220Z,27.55
2022-10-12T23:42:09.982Z,20.02
2022-10-12T23:47:10.725Z,24.05
2022-10-12T23:52:12.123Z,23.33
2022-10-12T23:57:28.385Z,21.65
